Saint Martin Island, Netherlands Antilles

11:07 AM EST on December 05, 2016 (GMT -0500)
MARITIME | | Change Station

Elev 0 ft 19.80 °N, 70.10 °W | Updated 4 days ago

Clear
Clear
83 °F
Feels Like 87 °F
N
9
Wind Variable Wind from ENE
Gusts mph

Today
High -- | Low -- °F
--% Chance of Precip.
Yesterday
High -- | Low -- °F
Precip. -- in
Pressure 30.01 in
Visibility 6.2 miles
Clouds Few 2200 ft
Heat Index 87 °F
Dew Point 71 °F
Humidity 67%
Rainfall in
Snow Depth Not available.
5:30 AM 4:36 PM
Waxing Crescent, 32% visible
METAR TQPF 051600Z 08009KT 9999 FEW022 29/21 Q1016
Pressure 30.01 in
Visibility 6.2 miles
Clouds Few 2200 ft
Heat Index 87 °F
Dew Point 71 °F
Humidity 67%
Rainfall in
Snow Depth Not available.
5:30 AM 4:36 PM
Waxing Crescent, 32% visible
METAR TQPF 051600Z 08009KT 9999 FEW022 29/21 Q1016

10-Day Weather Forecast

No radar image for this location.
×

Almanac

Astronomy

Dec. 05, 2016 Rise Set
Actual Time
Civil Twilight
Nautical Twilight
Astronomical Twilight
Moon
Length of Visible Light
Length of Day
Tomorrow will be .
, % of the Moon is Illuminated

Today's Extremes

Country Highs Country Lows

Community

WunderPhotos

Upload Photos

1,955,800 photos uploaded!

WunderBlog® & News

Nearby

Air Quality

  Air Quality AQ Index Pollutant
Not available.

Snow Depth

Station Depth Elevation

Earthquake Activity

City Distance Mag. Time & Date
Minimum magnitude displayed is 2.5.

Coastal Water Temperatures

Place Temperature

Stations

Nearby Weather Stations

Station Location Temp. Windchill Dew Point Humidity Wind Precip. Elev Updated Type